sensor_id;sensor_type;location;lat;lon;timestamp;P1;durP1;ratioP1;P2;durP2;ratioP2
11598;SDS011;5855;48.840;9.188;2022-12-07T00:01:24;7.88;;;6.82;;
11598;SDS011;5855;48.840;9.188;2022-12-07T00:03:53;7.70;;;6.90;;
11598;SDS011;5855;48.840;9.188;2022-12-07T00:06:22;7.68;;;6.97;;
11598;SDS011;5855;48.840;9.188;2022-12-07T00:08:50;7.80;;;7.10;;
11598;SDS011;5855;48.840;9.188;2022-12-07T00:11:18;7.82;;;7.03;;
11598;SDS011;5855;48.840;9.188;2022-12-07T00:13:46;7.97;;;7.18;;
11598;SDS011;5855;48.840;9.188;2022-12-07T00:16:14;9.05;;;7.97;;
11598;SDS011;5855;48.840;9.188;2022-12-07T00:18:42;9.82;;;7.68;;
11598;SDS011;5855;48.840;9.188;2022-12-07T00:21:10;8.35;;;7.43;;
11598;SDS011;5855;48.840;9.188;2022-12-07T00:23:39;8.98;;;7.60;;
11598;SDS011;5855;48.840;9.188;2022-12-07T00:26:09;8.48;;;7.30;;
11598;SDS011;5855;48.840;9.188;2022-12-07T00:28:37;8.95;;;8.00;;
11598;SDS011;5855;48.840;9.188;2022-12-07T00:31:05;8.50;;;7.43;;
11598;SDS011;5855;48.840;9.188;2022-12-07T00:33:32;8.27;;;7.35;;
11598;SDS011;5855;48.840;9.188;2022-12-07T00:36:01;8.30;;;7.50;;
11598;SDS011;5855;48.840;9.188;2022-12-07T00:38:29;8.80;;;7.90;;
11598;SDS011;5855;48.840;9.188;2022-12-07T00:40:57;9.18;;;7.40;;
11598;SDS011;5855;48.840;9.188;2022-12-07T00:43:25;8.50;;;7.60;;
11598;SDS011;5855;48.840;9.188;2022-12-07T00:45:52;11.20;;;7.78;;
11598;SDS011;5855;48.840;9.188;2022-12-07T00:48:19;8.32;;;7.43;;
11598;SDS011;5855;48.840;9.188;2022-12-07T00:50:46;10.38;;;7.20;;
11598;SDS011;5855;48.840;9.188;2022-12-07T00:53:13;8.73;;;7.78;;
11598;SDS011;5855;48.840;9.188;2022-12-07T00:55:41;7.97;;;7.18;;
11598;SDS011;5855;48.840;9.188;2022-12-07T00:58:07;8.50;;;7.65;;
11598;SDS011;5855;48.840;9.188;2022-12-07T01:00:36;8.52;;;7.63;;
11598;SDS011;5855;48.840;9.188;2022-12-07T01:03:04;8.77;;;7.65;;
11598;SDS011;5855;48.840;9.188;2022-12-07T01:05:32;10.20;;;8.05;;
11598;SDS011;5855;48.840;9.188;2022-12-07T01:07:59;8.85;;;7.95;;
11598;SDS011;5855;48.840;9.188;2022-12-07T01:10:25;10.00;;;7.65;;
11598;SDS011;5855;48.840;9.188;2022-12-07T01:12:53;10.00;;;8.32;;
11598;SDS011;5855;48.840;9.188;2022-12-07T01:15:20;10.98;;;8.50;;
11598;SDS011;5855;48.840;9.188;2022-12-07T01:17:48;8.80;;;7.90;;
11598;SDS011;5855;48.840;9.188;2022-12-07T01:20:15;10.98;;;8.27;;
11598;SDS011;5855;48.840;9.188;2022-12-07T01:22:42;8.45;;;7.63;;
11598;SDS011;5855;48.840;9.188;2022-12-07T01:25:10;10.57;;;8.25;;
11598;SDS011;5855;48.840;9.188;2022-12-07T01:27:37;9.98;;;8.60;;
11598;SDS011;5855;48.840;9.188;2022-12-07T01:30:04;9.20;;;8.20;;
11598;SDS011;5855;48.840;9.188;2022-12-07T01:32:32;10.55;;;8.10;;
11598;SDS011;5855;48.840;9.188;2022-12-07T01:35:01;9.43;;;8.27;;
11598;SDS011;5855;48.840;9.188;2022-12-07T01:37:27;10.30;;;8.43;;
11598;SDS011;5855;48.840;9.188;2022-12-07T01:39:59;9.05;;;8.10;;
11598;SDS011;5855;48.840;9.188;2022-12-07T01:42:26;9.13;;;8.25;;
11598;SDS011;5855;48.840;9.188;2022-12-07T01:47:55;9.15;;;8.23;;
11598;SDS011;5855;48.840;9.188;2022-12-07T01:50:25;9.35;;;8.32;;
11598;SDS011;5855;48.840;9.188;2022-12-07T01:52:57;8.52;;;7.72;;
11598;SDS011;5855;48.840;9.188;2022-12-07T01:55:27;9.38;;;8.00;;
11598;SDS011;5855;48.840;9.188;2022-12-07T01:57:54;8.93;;;8.00;;
11598;SDS011;5855;48.840;9.188;2022-12-07T02:00:22;9.73;;;7.75;;
11598;SDS011;5855;48.840;9.188;2022-12-07T02:02:51;10.68;;;8.15;;
11598;SDS011;5855;48.840;9.188;2022-12-07T02:05:20;9.20;;;7.97;;
11598;SDS011;5855;48.840;9.188;2022-12-07T02:07:49;8.85;;;7.90;;
11598;SDS011;5855;48.840;9.188;2022-12-07T02:10:19;8.93;;;8.00;;
11598;SDS011;5855;48.840;9.188;2022-12-07T02:12:48;9.45;;;8.48;;
11598;SDS011;5855;48.840;9.188;2022-12-07T02:15:18;10.30;;;8.55;;
11598;SDS011;5855;48.840;9.188;2022-12-07T02:17:51;8.65;;;7.85;;
11598;SDS011;5855;48.840;9.188;2022-12-07T02:20:26;10.02;;;8.20;;
11598;SDS011;5855;48.840;9.188;2022-12-07T02:26:09;8.52;;;7.72;;
11598;SDS011;5855;48.840;9.188;2022-12-07T02:29:13;9.43;;;8.40;;
11598;SDS011;5855;48.840;9.188;2022-12-07T02:31:46;10.07;;;8.38;;
11598;SDS011;5855;48.840;9.188;2022-12-07T02:34:19;8.52;;;7.72;;
11598;SDS011;5855;48.840;9.188;2022-12-07T02:36:52;8.30;;;7.50;;
11598;SDS011;5855;48.840;9.188;2022-12-07T02:39:25;8.75;;;7.75;;
11598;SDS011;5855;48.840;9.188;2022-12-07T02:42:00;8.07;;;7.28;;
11598;SDS011;5855;48.840;9.188;2022-12-07T02:44:33;8.77;;;7.80;;
11598;SDS011;5855;48.840;9.188;2022-12-07T02:47:02;8.90;;;8.00;;
11598;SDS011;5855;48.840;9.188;2022-12-07T02:49:31;8.48;;;7.40;;
11598;SDS011;5855;48.840;9.188;2022-12-07T02:51:58;8.45;;;7.55;;
11598;SDS011;5855;48.840;9.188;2022-12-07T02:54:26;9.27;;;8.18;;
11598;SDS011;5855;48.840;9.188;2022-12-07T02:56:53;9.45;;;7.75;;
11598;SDS011;5855;48.840;9.188;2022-12-07T02:59:29;9.15;;;7.80;;
11598;SDS011;5855;48.840;9.188;2022-12-07T03:02:14;8.40;;;7.50;;
11598;SDS011;5855;48.840;9.188;2022-12-07T03:04:49;7.90;;;7.10;;
11598;SDS011;5855;48.840;9.188;2022-12-07T03:07:24;7.97;;;7.18;;
11598;SDS011;5855;48.840;9.188;2022-12-07T03:09:59;8.73;;;7.75;;
11598;SDS011;5855;48.840;9.188;2022-12-07T03:12:35;8.70;;;7.70;;
11598;SDS011;5855;48.840;9.188;2022-12-07T03:15:12;9.00;;;7.63;;
11598;SDS011;5855;48.840;9.188;2022-12-07T03:17:44;9.45;;;7.40;;
11598;SDS011;5855;48.840;9.188;2022-12-07T03:20:13;7.90;;;7.10;;
11598;SDS011;5855;48.840;9.188;2022-12-07T03:22:43;8.50;;;7.47;;
11598;SDS011;5855;48.840;9.188;2022-12-07T03:25:12;9.63;;;8.10;;
11598;SDS011;5855;48.840;9.188;2022-12-07T03:27:43;8.60;;;7.53;;
11598;SDS011;5855;48.840;9.188;2022-12-07T03:30:17;8.77;;;7.72;;
11598;SDS011;5855;48.840;9.188;2022-12-07T03:32:46;8.40;;;7.60;;
11598;SDS011;5855;48.840;9.188;2022-12-07T03:35:17;8.68;;;7.78;;
11598;SDS011;5855;48.840;9.188;2022-12-07T03:37:49;9.18;;;8.18;;
11598;SDS011;5855;48.840;9.188;2022-12-07T03:40:19;10.18;;;7.80;;
11598;SDS011;5855;48.840;9.188;2022-12-07T03:42:50;9.52;;;8.52;;
11598;SDS011;5855;48.840;9.188;2022-12-07T03:45:20;9.45;;;8.13;;
11598;SDS011;5855;48.840;9.188;2022-12-07T03:47:54;9.95;;;8.57;;
11598;SDS011;5855;48.840;9.188;2022-12-07T03:50:31;9.18;;;7.70;;
11598;SDS011;5855;48.840;9.188;2022-12-07T03:53:04;11.68;;;8.18;;
11598;SDS011;5855;48.840;9.188;2022-12-07T03:55:37;10.65;;;8.10;;
11598;SDS011;5855;48.840;9.188;2022-12-07T03:58:09;9.40;;;8.50;;
11598;SDS011;5855;48.840;9.188;2022-12-07T04:00:40;9.70;;;8.50;;
11598;SDS011;5855;48.840;9.188;2022-12-07T04:03:07;9.93;;;8.50;;
11598;SDS011;5855;48.840;9.188;2022-12-07T04:05:34;10.18;;;7.93;;
11598;SDS011;5855;48.840;9.188;2022-12-07T04:08:01;8.80;;;7.75;;
11598;SDS011;5855;48.840;9.188;2022-12-07T04:10:28;9.18;;;8.15;;
11598;SDS011;5855;48.840;9.188;2022-12-07T04:12:55;9.20;;;8.27;;
11598;SDS011;5855;48.840;9.188;2022-12-07T04:15:22;10.38;;;8.57;;
11598;SDS011;5855;48.840;9.188;2022-12-07T04:17:50;11.98;;;8.63;;
11598;SDS011;5855;48.840;9.188;2022-12-07T04:20:17;8.63;;;7.72;;
11598;SDS011;5855;48.840;9.188;2022-12-07T04:22:44;9.00;;;8.05;;
11598;SDS011;5855;48.840;9.188;2022-12-07T04:25:11;9.60;;;8.60;;
11598;SDS011;5855;48.840;9.188;2022-12-07T04:27:38;9.00;;;7.90;;
11598;SDS011;5855;48.840;9.188;2022-12-07T04:30:05;9.23;;;8.07;;
11598;SDS011;5855;48.840;9.188;2022-12-07T04:32:33;9.68;;;8.18;;
11598;SDS011;5855;48.840;9.188;2022-12-07T04:35:03;9.50;;;8.20;;
11598;SDS011;5855;48.840;9.188;2022-12-07T04:37:31;10.27;;;8.38;;
11598;SDS011;5855;48.840;9.188;2022-12-07T04:39:58;10.55;;;8.30;;
11598;SDS011;5855;48.840;9.188;2022-12-07T04:42:25;9.07;;;8.15;;
11598;SDS011;5855;48.840;9.188;2022-12-07T04:44:51;9.15;;;8.10;;
11598;SDS011;5855;48.840;9.188;2022-12-07T04:47:18;8.27;;;7.40;;
11598;SDS011;5855;48.840;9.188;2022-12-07T04:49:46;8.30;;;7.50;;
11598;SDS011;5855;48.840;9.188;2022-12-07T04:52:14;9.40;;;7.05;;
11598;SDS011;5855;48.840;9.188;2022-12-07T04:54:41;8.63;;;7.22;;
11598;SDS011;5855;48.840;9.188;2022-12-07T04:57:07;8.00;;;7.20;;
11598;SDS011;5855;48.840;9.188;2022-12-07T04:59:34;8.10;;;7.25;;
11598;SDS011;5855;48.840;9.188;2022-12-07T05:02:03;8.13;;;7.07;;
11598;SDS011;5855;48.840;9.188;2022-12-07T05:04:30;8.13;;;7.13;;
11598;SDS011;5855;48.840;9.188;2022-12-07T05:06:56;9.60;;;7.63;;
11598;SDS011;5855;48.840;9.188;2022-12-07T05:09:25;7.90;;;6.65;;
11598;SDS011;5855;48.840;9.188;2022-12-07T05:11:52;8.63;;;7.43;;
11598;SDS011;5855;48.840;9.188;2022-12-07T05:14:19;8.75;;;7.50;;
11598;SDS011;5855;48.840;9.188;2022-12-07T05:16:47;9.38;;;8.20;;
11598;SDS011;5855;48.840;9.188;2022-12-07T05:19:15;8.65;;;7.75;;
11598;SDS011;5855;48.840;9.188;2022-12-07T05:21:42;8.80;;;7.55;;
11598;SDS011;5855;48.840;9.188;2022-12-07T05:24:10;8.15;;;7.32;;
11598;SDS011;5855;48.840;9.188;2022-12-07T05:26:39;8.55;;;7.65;;
11598;SDS011;5855;48.840;9.188;2022-12-07T05:29:07;9.20;;;8.18;;
11598;SDS011;5855;48.840;9.188;2022-12-07T05:31:36;8.45;;;7.35;;
11598;SDS011;5855;48.840;9.188;2022-12-07T05:34:03;9.00;;;8.07;;
11598;SDS011;5855;48.840;9.188;2022-12-07T05:36:30;9.10;;;7.75;;
11598;SDS011;5855;48.840;9.188;2022-12-07T05:38:57;10.82;;;8.40;;
11598;SDS011;5855;48.840;9.188;2022-12-07T05:41:24;8.70;;;7.80;;
11598;SDS011;5855;48.840;9.188;2022-12-07T05:44:10;10.48;;;9.07;;
11598;SDS011;5855;48.840;9.188;2022-12-07T05:46:37;8.90;;;7.93;;
11598;SDS011;5855;48.840;9.188;2022-12-07T05:49:04;10.52;;;7.93;;
11598;SDS011;5855;48.840;9.188;2022-12-07T05:51:31;10.95;;;8.32;;
11598;SDS011;5855;48.840;9.188;2022-12-07T05:53:58;9.68;;;8.18;;
11598;SDS011;5855;48.840;9.188;2022-12-07T05:56:24;9.70;;;8.30;;
11598;SDS011;5855;48.840;9.188;2022-12-07T05:58:52;9.45;;;8.40;;
11598;SDS011;5855;48.840;9.188;2022-12-07T06:01:43;11.38;;;9.02;;
11598;SDS011;5855;48.840;9.188;2022-12-07T06:04:10;9.27;;;8.00;;
11598;SDS011;5855;48.840;9.188;2022-12-07T06:06:37;9.77;;;8.23;;
11598;SDS011;5855;48.840;9.188;2022-12-07T06:09:04;9.73;;;8.70;;
11598;SDS011;5855;48.840;9.188;2022-12-07T06:11:31;11.38;;;8.85;;
11598;SDS011;5855;48.840;9.188;2022-12-07T06:14:15;10.05;;;8.10;;
11598;SDS011;5855;48.840;9.188;2022-12-07T06:16:43;10.02;;;8.60;;
11598;SDS011;5855;48.840;9.188;2022-12-07T06:19:10;9.13;;;8.13;;
11598;SDS011;5855;48.840;9.188;2022-12-07T06:21:37;9.88;;;8.77;;
11598;SDS011;5855;48.840;9.188;2022-12-07T06:24:04;10.57;;;9.38;;
11598;SDS011;5855;48.840;9.188;2022-12-07T06:26:31;10.55;;;8.85;;
11598;SDS011;5855;48.840;9.188;2022-12-07T06:28:58;11.65;;;9.65;;
11598;SDS011;5855;48.840;9.188;2022-12-07T06:31:25;10.65;;;8.85;;
11598;SDS011;5855;48.840;9.188;2022-12-07T06:33:57;10.90;;;8.88;;
11598;SDS011;5855;48.840;9.188;2022-12-07T06:36:25;10.93;;;8.80;;
11598;SDS011;5855;48.840;9.188;2022-12-07T06:38:52;9.00;;;8.10;;
11598;SDS011;5855;48.840;9.188;2022-12-07T06:41:19;14.63;;;11.35;;
11598;SDS011;5855;48.840;9.188;2022-12-07T06:43:46;10.25;;;8.75;;
11598;SDS011;5855;48.840;9.188;2022-12-07T06:46:13;8.27;;;7.47;;
11598;SDS011;5855;48.840;9.188;2022-12-07T06:48:40;8.10;;;7.00;;
11598;SDS011;5855;48.840;9.188;2022-12-07T06:51:08;7.60;;;6.70;;
11598;SDS011;5855;48.840;9.188;2022-12-07T06:53:36;9.32;;;6.90;;
11598;SDS011;5855;48.840;9.188;2022-12-07T06:56:03;7.03;;;6.30;;
11598;SDS011;5855;48.840;9.188;2022-12-07T06:58:30;9.02;;;7.22;;
11598;SDS011;5855;48.840;9.188;2022-12-07T07:00:57;7.90;;;6.50;;
11598;SDS011;5855;48.840;9.188;2022-12-07T07:03:24;6.68;;;5.97;;
11598;SDS011;5855;48.840;9.188;2022-12-07T07:05:51;7.80;;;6.15;;
11598;SDS011;5855;48.840;9.188;2022-12-07T07:08:19;7.20;;;6.13;;
11598;SDS011;5855;48.840;9.188;2022-12-07T07:10:46;6.82;;;6.13;;
11598;SDS011;5855;48.840;9.188;2022-12-07T07:13:13;7.65;;;6.70;;
11598;SDS011;5855;48.840;9.188;2022-12-07T07:15:40;6.93;;;6.22;;
11598;SDS011;5855;48.840;9.188;2022-12-07T07:18:07;9.02;;;6.28;;
11598;SDS011;5855;48.840;9.188;2022-12-07T07:20:33;7.50;;;6.60;;
11598;SDS011;5855;48.840;9.188;2022-12-07T07:23:00;7.80;;;6.20;;
11598;SDS011;5855;48.840;9.188;2022-12-07T07:25:29;7.80;;;6.38;;
11598;SDS011;5855;48.840;9.188;2022-12-07T07:27:56;9.27;;;6.53;;
11598;SDS011;5855;48.840;9.188;2022-12-07T07:30:22;8.57;;;6.20;;
11598;SDS011;5855;48.840;9.188;2022-12-07T07:32:49;7.10;;;5.70;;
11598;SDS011;5855;48.840;9.188;2022-12-07T07:35:16;6.72;;;5.70;;
11598;SDS011;5855;48.840;9.188;2022-12-07T07:37:43;5.93;;;5.32;;
11598;SDS011;5855;48.840;9.188;2022-12-07T07:40:10;6.40;;;5.25;;
11598;SDS011;5855;48.840;9.188;2022-12-07T07:42:39;5.72;;;5.10;;
11598;SDS011;5855;48.840;9.188;2022-12-07T07:45:06;5.70;;;4.60;;
11598;SDS011;5855;48.840;9.188;2022-12-07T07:47:33;6.18;;;4.97;;
11598;SDS011;5855;48.840;9.188;2022-12-07T07:50:00;5.55;;;4.97;;
11598;SDS011;5855;48.840;9.188;2022-12-07T07:52:27;5.40;;;4.90;;
11598;SDS011;5855;48.840;9.188;2022-12-07T07:54:54;5.85;;;4.97;;
11598;SDS011;5855;48.840;9.188;2022-12-07T07:57:20;5.25;;;4.75;;
11598;SDS011;5855;48.840;9.188;2022-12-07T07:59:49;6.20;;;4.95;;
11598;SDS011;5855;48.840;9.188;2022-12-07T08:02:16;6.57;;;5.28;;
11598;SDS011;5855;48.840;9.188;2022-12-07T08:04:44;5.85;;;4.75;;
11598;SDS011;5855;48.840;9.188;2022-12-07T08:07:12;7.13;;;5.07;;
11598;SDS011;5855;48.840;9.188;2022-12-07T08:09:40;6.80;;;4.90;;
11598;SDS011;5855;48.840;9.188;2022-12-07T08:12:07;5.65;;;5.05;;
11598;SDS011;5855;48.840;9.188;2022-12-07T08:14:34;5.45;;;4.72;;
11598;SDS011;5855;48.840;9.188;2022-12-07T08:17:02;5.55;;;4.80;;
11598;SDS011;5855;48.840;9.188;2022-12-07T08:19:29;5.22;;;4.68;;
11598;SDS011;5855;48.840;9.188;2022-12-07T08:21:56;6.43;;;4.75;;
11598;SDS011;5855;48.840;9.188;2022-12-07T08:24:23;5.28;;;4.47;;
11598;SDS011;5855;48.840;9.188;2022-12-07T08:26:50;5.00;;;4.47;;
11598;SDS011;5855;48.840;9.188;2022-12-07T08:29:17;6.65;;;4.47;;
11598;SDS011;5855;48.840;9.188;2022-12-07T08:31:44;4.93;;;4.43;;
11598;SDS011;5855;48.840;9.188;2022-12-07T08:34:12;5.55;;;4.97;;
11598;SDS011;5855;48.840;9.188;2022-12-07T08:36:39;6.53;;;5.10;;
11598;SDS011;5855;48.840;9.188;2022-12-07T08:39:06;5.47;;;4.88;;
11598;SDS011;5855;48.840;9.188;2022-12-07T08:41:33;5.05;;;4.32;;
11598;SDS011;5855;48.840;9.188;2022-12-07T08:44:00;6.20;;;4.70;;
11598;SDS011;5855;48.840;9.188;2022-12-07T08:46:28;4.82;;;4.32;;
11598;SDS011;5855;48.840;9.188;2022-12-07T08:49:01;7.07;;;4.70;;
11598;SDS011;5855;48.840;9.188;2022-12-07T08:51:32;6.00;;;4.53;;
11598;SDS011;5855;48.840;9.188;2022-12-07T08:53:59;5.50;;;4.85;;
11598;SDS011;5855;48.840;9.188;2022-12-07T08:56:29;7.72;;;4.93;;
11598;SDS011;5855;48.840;9.188;2022-12-07T08:58:56;5.40;;;4.85;;
11598;SDS011;5855;48.840;9.188;2022-12-07T09:01:26;5.10;;;4.60;;
11598;SDS011;5855;48.840;9.188;2022-12-07T09:03:52;5.75;;;4.82;;
11598;SDS011;5855;48.840;9.188;2022-12-07T09:06:19;6.10;;;4.90;;
11598;SDS011;5855;48.840;9.188;2022-12-07T09:08:49;5.38;;;4.35;;
11598;SDS011;5855;48.840;9.188;2022-12-07T09:11:19;6.72;;;4.60;;
11598;SDS011;5855;48.840;9.188;2022-12-07T09:13:46;5.95;;;4.60;;
11598;SDS011;5855;48.840;9.188;2022-12-07T09:16:13;4.78;;;4.28;;
11598;SDS011;5855;48.840;9.188;2022-12-07T09:18:39;5.40;;;4.50;;
11598;SDS011;5855;48.840;9.188;2022-12-07T09:21:06;4.80;;;4.30;;
11598;SDS011;5855;48.840;9.188;2022-12-07T09:23:34;4.97;;;4.43;;
11598;SDS011;5855;48.840;9.188;2022-12-07T09:26:02;6.03;;;4.57;;
11598;SDS011;5855;48.840;9.188;2022-12-07T09:28:30;5.43;;;4.47;;
11598;SDS011;5855;48.840;9.188;2022-12-07T09:30:57;4.72;;;3.83;;
11598;SDS011;5855;48.840;9.188;2022-12-07T09:33:24;4.80;;;4.35;;
11598;SDS011;5855;48.840;9.188;2022-12-07T09:35:52;5.90;;;4.20;;
11598;SDS011;5855;48.840;9.188;2022-12-07T09:38:19;4.43;;;4.00;;
11598;SDS011;5855;48.840;9.188;2022-12-07T09:40:46;5.03;;;3.90;;
11598;SDS011;5855;48.840;9.188;2022-12-07T09:43:15;4.72;;;3.42;;
11598;SDS011;5855;48.840;9.188;2022-12-07T09:45:44;4.70;;;3.72;;
11598;SDS011;5855;48.840;9.188;2022-12-07T09:48:15;4.30;;;3.53;;
11598;SDS011;5855;48.840;9.188;2022-12-07T09:50:45;3.90;;;3.38;;
11598;SDS011;5855;48.840;9.188;2022-12-07T09:53:14;6.15;;;3.95;;
11598;SDS011;5855;48.840;9.188;2022-12-07T09:55:46;4.10;;;3.63;;
11598;SDS011;5855;48.840;9.188;2022-12-07T09:58:17;4.53;;;3.70;;
11598;SDS011;5855;48.840;9.188;2022-12-07T10:00:47;3.80;;;3.40;;
11598;SDS011;5855;48.840;9.188;2022-12-07T10:03:15;4.13;;;3.50;;
11598;SDS011;5855;48.840;9.188;2022-12-07T10:05:42;3.85;;;3.45;;
11598;SDS011;5855;48.840;9.188;2022-12-07T10:08:11;4.20;;;3.40;;
11598;SDS011;5855;48.840;9.188;2022-12-07T10:10:40;4.10;;;3.70;;
11598;SDS011;5855;48.840;9.188;2022-12-07T10:13:08;5.28;;;3.75;;
11598;SDS011;5855;48.840;9.188;2022-12-07T10:15:44;3.95;;;3.42;;
11598;SDS011;5855;48.840;9.188;2022-12-07T10:18:18;4.07;;;3.67;;
11598;SDS011;5855;48.840;9.188;2022-12-07T10:20:59;4.38;;;3.75;;
11598;SDS011;5855;48.840;9.188;2022-12-07T10:23:27;4.35;;;3.95;;
11598;SDS011;5855;48.840;9.188;2022-12-07T10:25:54;4.20;;;3.75;;
11598;SDS011;5855;48.840;9.188;2022-12-07T10:28:21;4.15;;;3.75;;
11598;SDS011;5855;48.840;9.188;2022-12-07T10:30:52;7.32;;;3.97;;
11598;SDS011;5855;48.840;9.188;2022-12-07T10:33:28;5.13;;;3.83;;
11598;SDS011;5855;48.840;9.188;2022-12-07T10:35:57;7.80;;;3.80;;
11598;SDS011;5855;48.840;9.188;2022-12-07T10:38:26;6.55;;;3.88;;
11598;SDS011;5855;48.840;9.188;2022-12-07T10:41:04;4.47;;;3.60;;
11598;SDS011;5855;48.840;9.188;2022-12-07T10:43:33;5.38;;;3.95;;
11598;SDS011;5855;48.840;9.188;2022-12-07T10:46:13;4.30;;;3.90;;
11598;SDS011;5855;48.840;9.188;2022-12-07T10:48:59;4.28;;;3.03;;
11598;SDS011;5855;48.840;9.188;2022-12-07T10:51:35;3.33;;;3.03;;
11598;SDS011;5855;48.840;9.188;2022-12-07T10:54:12;3.60;;;2.97;;
11598;SDS011;5855;48.840;9.188;2022-12-07T10:56:55;3.15;;;2.85;;
11598;SDS011;5855;48.840;9.188;2022-12-07T11:02:39;3.10;;;2.78;;
11598;SDS011;5855;48.840;9.188;2022-12-07T11:05:23;3.15;;;2.72;;
11598;SDS011;5855;48.840;9.188;2022-12-07T11:07:57;2.95;;;2.60;;
11598;SDS011;5855;48.840;9.188;2022-12-07T11:10:34;3.63;;;2.60;;
11598;SDS011;5855;48.840;9.188;2022-12-07T11:13:16;2.60;;;2.40;;
11598;SDS011;5855;48.840;9.188;2022-12-07T11:15:54;2.80;;;2.60;;
11598;SDS011;5855;48.840;9.188;2022-12-07T11:18:42;2.85;;;2.65;;
11598;SDS011;5855;48.840;9.188;2022-12-07T11:21:17;3.42;;;2.90;;
11598;SDS011;5855;48.840;9.188;2022-12-07T11:23:52;3.33;;;2.67;;
11598;SDS011;5855;48.840;9.188;2022-12-07T11:26:26;3.15;;;2.83;;
11598;SDS011;5855;48.840;9.188;2022-12-07T11:29:11;3.55;;;3.25;;
11598;SDS011;5855;48.840;9.188;2022-12-07T11:32:13;3.97;;;3.58;;
11598;SDS011;5855;48.840;9.188;2022-12-07T11:34:50;5.00;;;3.63;;
11598;SDS011;5855;48.840;9.188;2022-12-07T11:37:29;4.45;;;4.05;;
11598;SDS011;5855;48.840;9.188;2022-12-07T11:39:59;5.45;;;4.25;;
11598;SDS011;5855;48.840;9.188;2022-12-07T11:42:29;4.68;;;4.18;;
11598;SDS011;5855;48.840;9.188;2022-12-07T11:45:06;4.55;;;4.15;;
11598;SDS011;5855;48.840;9.188;2022-12-07T11:47:41;4.50;;;4.10;;
11598;SDS011;5855;48.840;9.188;2022-12-07T11:50:23;5.22;;;4.72;;
11598;SDS011;5855;48.840;9.188;2022-12-07T11:52:53;5.22;;;4.40;;
11598;SDS011;5855;48.840;9.188;2022-12-07T11:55:26;6.55;;;5.18;;
11598;SDS011;5855;48.840;9.188;2022-12-07T11:57:58;6.15;;;5.55;;
11598;SDS011;5855;48.840;9.188;2022-12-07T12:00:30;6.38;;;5.78;;
11598;SDS011;5855;48.840;9.188;2022-12-07T12:02:58;7.35;;;5.60;;
11598;SDS011;5855;48.840;9.188;2022-12-07T12:05:30;7.57;;;6.03;;
11598;SDS011;5855;48.840;9.188;2022-12-07T12:07:59;6.43;;;5.60;;
11598;SDS011;5855;48.840;9.188;2022-12-07T12:10:34;6.00;;;5.40;;
11598;SDS011;5855;48.840;9.188;2022-12-07T12:13:15;8.40;;;5.60;;
11598;SDS011;5855;48.840;9.188;2022-12-07T12:16:02;6.75;;;5.20;;
11598;SDS011;5855;48.840;9.188;2022-12-07T12:18:40;5.63;;;5.03;;
11598;SDS011;5855;48.840;9.188;2022-12-07T12:21:29;5.60;;;5.10;;
11598;SDS011;5855;48.840;9.188;2022-12-07T12:23:57;5.63;;;5.13;;
11598;SDS011;5855;48.840;9.188;2022-12-07T12:26:28;6.22;;;5.63;;
11598;SDS011;5855;48.840;9.188;2022-12-07T12:28:58;4.85;;;4.40;;
11598;SDS011;5855;48.840;9.188;2022-12-07T12:31:34;4.95;;;4.50;;
11598;SDS011;5855;48.840;9.188;2022-12-07T12:34:10;4.95;;;4.45;;
11598;SDS011;5855;48.840;9.188;2022-12-07T12:37:00;5.65;;;5.07;;
11598;SDS011;5855;48.840;9.188;2022-12-07T12:39:27;7.40;;;4.60;;
11598;SDS011;5855;48.840;9.188;2022-12-07T12:41:55;6.47;;;5.18;;
11598;SDS011;5855;48.840;9.188;2022-12-07T12:44:40;6.22;;;5.57;;
11598;SDS011;5855;48.840;9.188;2022-12-07T12:47:51;6.10;;;4.78;;
11598;SDS011;5855;48.840;9.188;2022-12-07T12:50:24;4.68;;;4.20;;
11598;SDS011;5855;48.840;9.188;2022-12-07T12:53:00;5.18;;;4.60;;
11598;SDS011;5855;48.840;9.188;2022-12-07T12:58:39;5.75;;;5.15;;
11598;SDS011;5855;48.840;9.188;2022-12-07T13:04:17;6.10;;;5.50;;
11598;SDS011;5855;48.840;9.188;2022-12-07T13:06:49;6.30;;;5.70;;
11598;SDS011;5855;48.840;9.188;2022-12-07T13:09:19;5.88;;;5.38;;
11598;SDS011;5855;48.840;9.188;2022-12-07T13:11:49;7.45;;;5.05;;
11598;SDS011;5855;48.840;9.188;2022-12-07T13:14:41;6.55;;;5.03;;
11598;SDS011;5855;48.840;9.188;2022-12-07T13:23:22;5.88;;;5.28;;
11598;SDS011;5855;48.840;9.188;2022-12-07T13:26:04;6.47;;;4.88;;
11598;SDS011;5855;48.840;9.188;2022-12-07T13:28:46;10.93;;;5.63;;
11598;SDS011;5855;48.840;9.188;2022-12-07T13:31:25;6.85;;;5.63;;
11598;SDS011;5855;48.840;9.188;2022-12-07T13:33:58;6.07;;;5.47;;
11598;SDS011;5855;48.840;9.188;2022-12-07T13:36:27;6.57;;;5.78;;
11598;SDS011;5855;48.840;9.188;2022-12-07T13:38:57;6.40;;;5.80;;
11598;SDS011;5855;48.840;9.188;2022-12-07T13:41:27;7.03;;;6.32;;
11598;SDS011;5855;48.840;9.188;2022-12-07T13:44:00;11.23;;;8.50;;
11598;SDS011;5855;48.840;9.188;2022-12-07T13:46:31;9.88;;;8.85;;
11598;SDS011;5855;48.840;9.188;2022-12-07T13:49:14;9.95;;;8.07;;
11598;SDS011;5855;48.840;9.188;2022-12-07T13:51:42;8.82;;;7.93;;
11598;SDS011;5855;48.840;9.188;2022-12-07T13:54:10;8.52;;;7.63;;
11598;SDS011;5855;48.840;9.188;2022-12-07T13:56:40;9.82;;;7.97;;
11598;SDS011;5855;48.840;9.188;2022-12-07T13:59:10;7.88;;;7.07;;
11598;SDS011;5855;48.840;9.188;2022-12-07T14:01:42;8.30;;;7.03;;
11598;SDS011;5855;48.840;9.188;2022-12-07T14:04:16;7.40;;;6.53;;
11598;SDS011;5855;48.840;9.188;2022-12-07T14:06:53;10.05;;;7.95;;
11598;SDS011;5855;48.840;9.188;2022-12-07T14:09:21;11.27;;;9.65;;
11598;SDS011;5855;48.840;9.188;2022-12-07T14:11:54;12.02;;;8.43;;
11598;SDS011;5855;48.840;9.188;2022-12-07T14:14:23;7.18;;;6.28;;
11598;SDS011;5855;48.840;9.188;2022-12-07T14:17:00;6.88;;;5.25;;
11598;SDS011;5855;48.840;9.188;2022-12-07T14:19:43;6.95;;;5.28;;
11598;SDS011;5855;48.840;9.188;2022-12-07T14:22:29;6.72;;;5.60;;
11598;SDS011;5855;48.840;9.188;2022-12-07T14:24:58;7.65;;;6.85;;
11598;SDS011;5855;48.840;9.188;2022-12-07T14:27:30;10.25;;;7.90;;
11598;SDS011;5855;48.840;9.188;2022-12-07T14:29:59;5.93;;;5.30;;
11598;SDS011;5855;48.840;9.188;2022-12-07T14:32:27;7.40;;;6.63;;
11598;SDS011;5855;48.840;9.188;2022-12-07T14:35:00;7.35;;;6.65;;
11598;SDS011;5855;48.840;9.188;2022-12-07T14:37:28;8.57;;;6.88;;
11598;SDS011;5855;48.840;9.188;2022-12-07T14:39:56;7.00;;;6.30;;
11598;SDS011;5855;48.840;9.188;2022-12-07T14:42:24;8.18;;;6.72;;
11598;SDS011;5855;48.840;9.188;2022-12-07T14:44:55;7.13;;;6.30;;
11598;SDS011;5855;48.840;9.188;2022-12-07T14:47:22;8.13;;;7.00;;
11598;SDS011;5855;48.840;9.188;2022-12-07T14:49:49;7.97;;;6.43;;
11598;SDS011;5855;48.840;9.188;2022-12-07T14:52:17;7.75;;;6.68;;
11598;SDS011;5855;48.840;9.188;2022-12-07T14:54:46;8.52;;;7.03;;
11598;SDS011;5855;48.840;9.188;2022-12-07T14:57:13;7.80;;;6.65;;
11598;SDS011;5855;48.840;9.188;2022-12-07T14:59:40;7.82;;;6.95;;
11598;SDS011;5855;48.840;9.188;2022-12-07T15:02:09;9.85;;;7.38;;
11598;SDS011;5855;48.840;9.188;2022-12-07T15:04:38;8.15;;;7.10;;
11598;SDS011;5855;48.840;9.188;2022-12-07T15:07:06;9.20;;;7.90;;
11598;SDS011;5855;48.840;9.188;2022-12-07T15:09:39;9.57;;;7.80;;
11598;SDS011;5855;48.840;9.188;2022-12-07T15:12:06;9.20;;;8.20;;
11598;SDS011;5855;48.840;9.188;2022-12-07T15:14:32;9.40;;;8.35;;
11598;SDS011;5855;48.840;9.188;2022-12-07T15:17:00;10.15;;;8.32;;
11598;SDS011;5855;48.840;9.188;2022-12-07T15:19:28;11.48;;;7.57;;
11598;SDS011;5855;48.840;9.188;2022-12-07T15:21:55;8.98;;;7.53;;
11598;SDS011;5855;48.840;9.188;2022-12-07T15:24:23;9.15;;;7.28;;
11598;SDS011;5855;48.840;9.188;2022-12-07T15:26:50;9.98;;;7.43;;
11598;SDS011;5855;48.840;9.188;2022-12-07T15:29:17;10.25;;;7.43;;
11598;SDS011;5855;48.840;9.188;2022-12-07T15:31:44;9.43;;;7.60;;
11598;SDS011;5855;48.840;9.188;2022-12-07T15:34:11;9.30;;;7.80;;
11598;SDS011;5855;48.840;9.188;2022-12-07T15:36:39;11.77;;;8.00;;
11598;SDS011;5855;48.840;9.188;2022-12-07T15:39:06;10.95;;;8.32;;
11598;SDS011;5855;48.840;9.188;2022-12-07T15:41:32;9.98;;;8.63;;